Time;durP1;ratioP1;P1;durP2;ratioP2;P2;SDS_P1;SDS_P2;PMS_P1;PMS_P2;Temp;Humidity;BMP_temperature;BMP_pressure;BME280_temperature;BME280_humidity;BME280_pressure;Samples;Min_cycle;Max_cycle;Signal;HPM_P1;HPM_P2
2021/12/11 00:00:12;;;;;;;2.70;1.50;;;2.90;99.90;;;;;;5009478;28;20053;-57
2021/12/11 00:02:39;;;;;;;4.03;1.33;;;2.90;99.90;;;;;;5022638;28;20103;-58
2021/12/11 00:05:06;;;;;;;3.33;1.17;;;2.90;99.90;;;;;;5022550;28;20053;-59
2021/12/11 00:07:34;;;;;;;2.60;1.00;;;2.80;99.90;;;;;;5023270;28;20081;-56
2021/12/11 00:10:13;;;;;;;2.60;1.23;;;2.80;99.90;;;;;;5021980;28;20150;-57
2021/12/11 00:13:04;;;;;;;3.38;1.45;;;2.80;99.90;;;;;;5024116;28;20050;-58
2021/12/11 00:15:33;;;;;;;3.40;1.40;;;2.90;99.90;;;;;;5022864;28;20081;-57
2021/12/11 00:18:07;;;;;;;3.25;1.30;;;2.90;99.90;;;;;;5024399;28;20085;-58
2021/12/11 00:20:37;;;;;;;5.38;1.45;;;2.90;99.90;;;;;;5022393;28;20145;-56
2021/12/11 00:23:04;;;;;;;3.55;1.30;;;2.90;99.90;;;;;;5009214;28;20124;-58
2021/12/11 00:25:31;;;;;;;3.55;1.23;;;2.90;99.90;;;;;;5020067;28;20145;-58
2021/12/11 00:28:04;;;;;;;4.28;1.48;;;2.90;99.90;;;;;;5024726;28;20131;-57
2021/12/11 00:30:38;;;;;;;3.50;1.20;;;3.00;99.90;;;;;;5023509;28;20088;-58
2021/12/11 00:33:11;;;;;;;4.25;1.48;;;3.00;99.90;;;;;;5012208;28;20413;-57
2021/12/11 00:35:38;;;;;;;3.53;1.38;;;3.00;99.90;;;;;;5012840;28;20060;-59
2021/12/11 00:38:08;;;;;;;3.33;1.25;;;3.00;99.90;;;;;;5024006;28;20093;-58
2021/12/11 00:40:35;;;;;;;2.13;1.23;;;3.00;99.90;;;;;;5020802;28;20132;-58
2021/12/11 00:43:04;;;;;;;4.35;1.50;;;3.10;99.90;;;;;;5023225;28;20764;-58
2021/12/11 00:45:36;;;;;;;4.82;1.40;;;3.10;99.90;;;;;;5023036;28;20529;-55
2021/12/11 00:48:06;;;;;;;3.58;1.85;;;3.10;99.90;;;;;;5019966;28;20075;-57
2021/12/11 00:50:43;;;;;;;5.35;1.70;;;3.20;99.90;;;;;;5021631;28;20521;-57
2021/12/11 00:53:24;;;;;;;3.75;1.30;;;3.20;99.90;;;;;;5023688;28;20160;-58
2021/12/11 00:55:55;;;;;;;4.20;1.27;;;3.20;99.90;;;;;;5021342;28;20081;-57
2021/12/11 00:58:27;;;;;;;3.22;1.75;;;3.10;99.90;;;;;;5023442;28;20581;-58
2021/12/11 01:00:56;;;;;;;5.30;1.67;;;3.20;99.90;;;;;;5021103;28;20235;-57
2021/12/11 01:03:48;;;;;;;3.60;1.75;;;3.20;99.90;;;;;;5022917;28;20053;-59
2021/12/11 01:06:15;;;;;;;5.03;1.60;;;3.10;99.90;;;;;;5009291;28;20537;-58
2021/12/11 01:08:44;;;;;;;2.38;1.00;;;3.10;99.90;;;;;;5023204;28;20602;-57
2021/12/11 01:11:15;;;;;;;2.67;1.30;;;3.20;99.90;;;;;;5020793;28;20602;-56
2021/12/11 01:13:50;;;;;;;5.25;1.50;;;3.10;99.90;;;;;;5023528;28;20115;-58
2021/12/11 01:16:20;;;;;;;4.50;1.52;;;3.10;99.90;;;;;;5022166;28;20132;-57
2021/12/11 01:18:49;;;;;;;2.72;1.20;;;3.10;99.90;;;;;;5023272;28;20055;-55
2021/12/11 01:21:45;;;;;;;3.97;1.48;;;3.10;99.90;;;;;;5022148;28;20085;-57
2021/12/11 01:24:28;;;;;;;3.70;1.48;;;3.10;99.90;;;;;;5022757;28;20095;-56
2021/12/11 01:26:56;;;;;;;4.90;1.50;;;3.00;99.90;;;;;;5012763;28;20441;-57
2021/12/11 01:29:23;;;;;;;2.38;1.17;;;3.10;99.90;;;;;;5023632;28;20508;-57
2021/12/11 01:31:50;;;;;;;3.40;1.10;;;3.10;99.90;;;;;;5021065;28;20615;-57
2021/12/11 01:34:17;;;;;;;2.80;1.35;;;3.00;99.90;;;;;;5023102;28;20540;-56
2021/12/11 01:36:44;;;;;;;3.38;1.55;;;3.00;99.90;;;;;;5020894;28;20073;-57
2021/12/11 01:39:15;;;;;;;4.60;1.48;;;3.00;99.90;;;;;;5020587;28;20516;-54
2021/12/11 01:41:42;;;;;;;2.15;1.20;;;3.00;99.90;;;;;;5019423;28;20163;-57
2021/12/11 01:44:30;;;;;;;4.20;1.40;;;3.00;99.90;;;;;;5020455;28;20076;-55
2021/12/11 01:47:04;;;;;;;3.97;1.38;;;3.00;99.90;;;;;;5016887;28;20087;-56
2021/12/11 01:49:31;;;;;;;2.20;1.02;;;3.00;99.90;;;;;;5022210;28;20281;-56
2021/12/11 01:52:19;;;;;;;2.30;1.02;;;2.90;99.90;;;;;;5021466;28;20088;-56
2021/12/11 01:54:46;;;;;;;2.63;1.05;;;2.90;99.90;;;;;;5021762;28;20083;-56
2021/12/11 01:57:23;;;;;;;3.47;1.42;;;2.90;99.90;;;;;;5020996;28;20088;-56
2021/12/11 02:00:14;;;;;;;4.10;1.42;;;2.90;99.90;;;;;;5020142;28;20053;-57
2021/12/11 02:02:44;;;;;;;2.63;1.20;;;2.90;99.90;;;;;;5022509;28;20049;-55
2021/12/11 02:05:12;;;;;;;3.08;1.48;;;2.90;99.90;;;;;;5021572;28;20208;-54
2021/12/11 02:07:47;;;;;;;3.20;1.58;;;2.90;99.90;;;;;;5022194;28;20128;-57
2021/12/11 02:10:25;;;;;;;3.67;1.58;;;2.90;99.90;;;;;;5019176;28;20736;-58
2021/12/11 02:12:52;;;;;;;4.40;1.70;;;2.80;99.90;;;;;;5021550;28;20144;-57
2021/12/11 02:15:26;;;;;;;7.20;1.98;;;2.90;99.90;;;;;;5020515;28;20128;-57
2021/12/11 02:18:00;;;;;;;3.42;1.33;;;2.90;99.90;;;;;;5021696;28;20160;-57
2021/12/11 02:20:35;;;;;;;2.65;1.55;;;2.90;99.90;;;;;;5019870;28;20111;-57
2021/12/11 02:23:04;;;;;;;7.38;2.10;;;2.80;99.90;;;;;;5022060;28;20091;-57
2021/12/11 02:25:34;;;;;;;5.78;1.80;;;2.80;99.90;;;;;;5017517;28;20136;-57
2021/12/11 02:28:44;;;;;;;4.70;1.52;;;2.80;99.90;;;;;;5021956;28;20083;-55
2021/12/11 02:31:13;;;;;;;5.10;1.63;;;2.90;99.90;;;;;;5016246;28;20879;-56
2021/12/11 02:33:52;;;;;;;5.55;1.73;;;2.90;99.90;;;;;;5018637;28;20088;-56
2021/12/11 02:36:44;;;;;;;3.80;1.30;;;2.90;99.90;;;;;;5022938;28;20069;-56
2021/12/11 02:39:11;;;;;;;4.88;1.88;;;2.90;99.90;;;;;;5020190;28;20089;-55
2021/12/11 02:42:03;;;;;;;2.50;1.40;;;2.90;99.90;;;;;;5020868;28;20136;-56
2021/12/11 02:44:37;;;;;;;4.50;2.03;;;2.90;99.90;;;;;;5022703;28;20152;-54
2021/12/11 02:47:32;;;;;;;3.92;1.20;;;2.90;99.90;;;;;;5023920;28;20473;-57
2021/12/11 02:50:06;;;;;;;2.28;1.42;;;2.90;99.90;;;;;;5024733;28;20065;-56
2021/12/11 02:52:54;;;;;;;;;;;2.90;99.90;;;;;;5023701;28;20182;-57
2021/12/11 02:55:40;;;;;;;3.40;1.42;;;2.90;99.90;;;;;;5024760;28;20538;-56
2021/12/11 02:58:15;;;;;;;6.07;1.30;;;2.90;99.90;;;;;;5023951;28;20050;-55
2021/12/11 03:01:00;;;;;;;2.05;0.98;;;2.80;99.90;;;;;;5024842;28;20572;-56
2021/12/11 03:03:35;;;;;;;3.05;1.10;;;2.80;99.90;;;;;;5027766;28;20049;-57
2021/12/11 03:06:15;;;;;;;2.28;1.20;;;2.80;99.90;;;;;;5028684;28;20117;-57
2021/12/11 03:08:42;;;;;;;3.63;1.30;;;2.80;99.90;;;;;;5028991;28;20045;-57
2021/12/11 03:11:12;;;;;;;6.35;1.88;;;2.80;99.90;;;;;;5028094;28;20060;-56
2021/12/11 03:13:39;;;;;;;3.28;1.10;;;2.80;99.90;;;;;;5027862;28;20128;-56
2021/12/11 03:16:07;;;;;;;2.10;1.10;;;2.80;99.90;;;;;;5028134;28;20080;-56
2021/12/11 03:18:34;;;;;;;2.78;1.10;;;2.80;99.90;;;;;;5028349;28;20053;-56
2021/12/11 03:21:01;;;;;;;2.83;1.02;;;2.80;99.90;;;;;;5028523;28;20058;-58
2021/12/11 03:23:28;;;;;;;2.83;1.10;;;2.90;99.90;;;;;;5028811;28;20128;-57
2021/12/11 03:25:55;;;;;;;3.03;1.50;;;2.90;99.90;;;;;;5026204;28;20073;-56
2021/12/11 03:28:22;;;;;;;2.70;0.95;;;2.90;99.90;;;;;;5027094;28;20139;-56
2021/12/11 03:30:57;;;;;;;4.40;1.10;;;3.00;99.90;;;;;;5028546;28;20120;-56
2021/12/11 03:33:27;;;;;;;3.00;1.25;;;3.00;99.90;;;;;;5028283;28;20052;-57
2021/12/11 03:35:55;;;;;;;3.25;1.10;;;3.00;99.90;;;;;;5028284;28;20647;-56
2021/12/11 03:38:23;;;;;;;3.55;1.17;;;3.10;99.90;;;;;;5027342;28;20125;-57
2021/12/11 03:40:50;;;;;;;4.10;1.58;;;3.10;99.90;;;;;;5027719;28;20132;-57
2021/12/11 03:43:18;;;;;;;4.82;1.75;;;3.20;99.90;;;;;;5026456;28;20132;-56
2021/12/11 03:45:46;;;;;;;5.82;1.60;;;3.20;99.90;;;;;;5027247;28;20124;-55
2021/12/11 03:48:19;;;;;;;3.10;1.20;;;3.20;99.90;;;;;;5028477;28;20049;-55
2021/12/11 03:50:46;;;;;;;2.97;1.23;;;3.30;99.90;;;;;;5028174;28;20084;-56
2021/12/11 03:53:13;;;;;;;5.45;1.38;;;3.30;99.90;;;;;;5027458;28;20081;-54
2021/12/11 03:55:44;;;;;;;3.42;1.77;;;3.30;99.90;;;;;;5027297;28;20085;-55
2021/12/11 03:58:10;;;;;;;2.40;1.20;;;3.40;99.90;;;;;;5026821;28;20076;-56
2021/12/11 04:00:41;;;;;;;2.58;1.20;;;3.40;99.90;;;;;;5026680;28;20140;-57
2021/12/11 04:03:09;;;;;;;4.03;1.50;;;3.40;99.90;;;;;;5026498;28;20049;-57
2021/12/11 04:05:38;;;;;;;2.50;1.05;;;3.40;99.90;;;;;;5028493;28;20077;-57
2021/12/11 04:08:06;;;;;;;5.55;2.15;;;3.40;99.90;;;;;;5027868;28;20128;-55
2021/12/11 04:10:33;;;;;;;4.63;1.42;;;3.40;99.90;;;;;;5027263;28;20085;-57
2021/12/11 04:13:01;;;;;;;2.13;0.98;;;3.40;99.90;;;;;;5026249;28;20587;-56
2021/12/11 04:15:28;;;;;;;3.22;0.90;;;3.30;99.90;;;;;;5026979;28;20101;-55
2021/12/11 04:17:54;;;;;;;3.00;1.40;;;3.30;99.90;;;;;;5027311;28;20060;-57
2021/12/11 04:20:22;;;;;;;1.63;0.82;;;3.20;99.90;;;;;;5005842;28;20100;-56
2021/12/11 04:22:49;;;;;;;2.72;0.93;;;3.20;99.90;;;;;;5021452;28;20124;-57
2021/12/11 04:25:18;;;;;;;3.47;1.30;;;3.20;99.90;;;;;;5027016;28;20088;-57
2021/12/11 04:27:45;;;;;;;4.68;1.60;;;3.20;99.90;;;;;;5026186;28;20136;-56
2021/12/11 04:30:13;;;;;;;3.63;1.08;;;3.20;99.90;;;;;;5027710;28;20064;-56
2021/12/11 04:32:40;;;;;;;3.08;1.40;;;3.10;99.90;;;;;;5026885;28;20505;-53
2021/12/11 04:35:07;;;;;;;2.83;1.05;;;3.10;99.90;;;;;;5027521;28;20132;-55
2021/12/11 04:37:34;;;;;;;4.05;1.25;;;3.10;99.90;;;;;;5027069;28;20069;-58
2021/12/11 04:40:08;;;;;;;2.45;1.05;;;3.10;99.90;;;;;;5027137;28;20491;-55
2021/12/11 04:45:23;;;;;;;3.50;1.00;;;3.10;99.90;;;;;;5026581;28;20076;-55
2021/12/11 04:47:57;;;;;;;3.10;1.05;;;3.10;99.90;;;;;;5025968;28;20088;-55
2021/12/11 04:50:34;;;;;;;4.32;1.75;;;3.20;99.90;;;;;;5027679;28;20092;-57
2021/12/11 04:53:03;;;;;;;2.95;0.98;;;3.20;99.90;;;;;;5026995;28;20080;-54
2021/12/11 04:56:13;;;;;;;3.45;1.10;;;3.20;99.90;;;;;;5026794;28;20089;-55
2021/12/11 05:01:56;;;;;;;4.57;1.60;;;3.30;99.90;;;;;;5026543;28;20088;-54
2021/12/11 05:09:24;;;;;;;3.00;0.90;;;3.40;99.90;;;;;;5025338;28;20474;-57
2021/12/11 05:12:27;;;;;;;5.30;1.33;;;3.40;99.90;;;;;;5024133;28;20619;-55
2021/12/11 05:14:54;;;;;;;3.43;1.53;;;3.50;99.90;;;;;;5026418;28;20077;-55
2021/12/11 05:17:21;;;;;;;3.00;1.20;;;3.50;99.90;;;;;;5024535;28;20115;-56
2021/12/11 05:19:52;;;;;;;2.55;1.30;;;3.50;99.90;;;;;;5025105;28;20482;-56
2021/12/11 05:22:18;;;;;;;2.45;0.98;;;3.50;99.90;;;;;;5026758;28;20128;-55
2021/12/11 05:24:48;;;;;;;3.63;1.10;;;3.50;99.90;;;;;;5026282;28;20132;-55
2021/12/11 05:27:15;;;;;;;2.97;1.00;;;3.50;99.90;;;;;;5004584;28;20085;-56
2021/12/11 05:29:42;;;;;;;3.47;0.95;;;3.60;99.90;;;;;;5025857;28;20132;-57
2021/12/11 05:32:11;;;;;;;2.78;1.15;;;3.60;99.90;;;;;;5025626;28;20420;-55
2021/12/11 05:34:39;;;;;;;3.38;0.90;;;3.60;99.90;;;;;;5026457;28;20466;-59
2021/12/11 05:37:06;;;;;;;2.55;1.02;;;3.60;99.90;;;;;;5026214;28;20181;-56
2021/12/11 05:39:32;;;;;;;2.88;1.42;;;3.60;99.90;;;;;;5025759;28;20134;-57
2021/12/11 05:41:59;;;;;;;2.78;1.05;;;3.60;99.90;;;;;;5024280;28;20474;-54
2021/12/11 05:44:26;;;;;;;2.00;0.80;;;3.60;99.90;;;;;;5025998;28;20472;-56
2021/12/11 05:46:53;;;;;;;2.45;1.02;;;3.60;99.90;;;;;;5025229;28;20121;-57
2021/12/11 05:49:20;;;;;;;1.80;1.10;;;3.60;99.90;;;;;;5011802;28;20054;-56
2021/12/11 05:51:47;;;;;;;2.58;1.10;;;3.60;99.90;;;;;;5004523;28;20120;-53
2021/12/11 05:54:17;;;;;;;3.45;1.15;;;3.60;99.90;;;;;;5019467;28;20136;-57
2021/12/11 05:56:44;;;;;;;2.72;1.00;;;3.60;99.90;;;;;;5021954;28;20179;-55
2021/12/11 05:59:12;;;;;;;3.33;1.35;;;3.70;99.90;;;;;;5023812;28;20156;-56
2021/12/11 06:01:48;;;;;;;3.95;1.15;;;3.70;99.90;;;;;;5023438;28;20073;-56
2021/12/11 06:04:17;;;;;;;2.95;1.08;;;3.70;99.90;;;;;;5021211;28;20136;-56
2021/12/11 06:06:44;;;;;;;3.55;1.50;;;3.70;99.90;;;;;;5022146;28;20077;-54
2021/12/11 06:09:13;;;;;;;1.65;1.17;;;3.80;99.90;;;;;;5020776;28;20582;-56
2021/12/11 06:11:40;;;;;;;2.58;1.40;;;3.80;99.90;;;;;;5020318;28;20632;-56
2021/12/11 06:14:07;;;;;;;3.75;1.13;;;3.80;99.90;;;;;;5021661;28;20513;-53
2021/12/11 06:16:34;;;;;;;3.03;1.15;;;3.80;99.90;;;;;;5024272;28;20547;-54
2021/12/11 06:19:04;;;;;;;3.17;1.17;;;3.80;99.90;;;;;;5024913;28;20061;-57
2021/12/11 06:21:32;;;;;;;2.97;1.17;;;3.80;99.90;;;;;;5024313;28;20093;-56
2021/12/11 06:23:59;;;;;;;2.67;1.00;;;3.80;99.90;;;;;;5022712;28;20148;-57
2021/12/11 06:26:25;;;;;;;2.95;0.93;;;3.80;99.90;;;;;;5019774;28;20087;-56
2021/12/11 06:28:52;;;;;;;1.98;1.13;;;3.80;99.90;;;;;;5020956;28;20084;-54
2021/12/11 06:31:19;;;;;;;1.90;0.88;;;3.80;99.90;;;;;;5018638;28;20132;-55
2021/12/11 06:33:47;;;;;;;2.17;1.02;;;3.80;99.90;;;;;;5019008;28;20060;-55
2021/12/11 06:36:15;;;;;;;2.35;1.08;;;3.80;99.90;;;;;;5016745;28;20140;-52
2021/12/11 06:38:43;;;;;;;1.65;0.93;;;3.80;99.90;;;;;;5021288;28;20095;-57
2021/12/11 06:41:11;;;;;;;3.30;1.23;;;3.80;99.90;;;;;;5022159;28;20128;-54
2021/12/11 06:43:38;;;;;;;1.60;0.90;;;3.80;99.90;;;;;;5019731;28;20084;-55
2021/12/11 06:46:06;;;;;;;3.67;1.52;;;3.80;99.90;;;;;;5020558;28;20053;-55
2021/12/11 06:48:32;;;;;;;3.95;1.27;;;3.80;99.90;;;;;;5020463;28;20148;-56
2021/12/11 06:50:59;;;;;;;3.17;0.88;;;3.90;99.90;;;;;;5020325;28;20568;-56
2021/12/11 06:53:53;;;;;;;1.67;1.00;;;4.00;99.90;;;;;;5021580;28;20181;-56
2021/12/11 06:56:20;;;;;;;4.05;1.00;;;4.00;99.90;;;;;;5017790;28;20132;-56
2021/12/11 06:58:48;;;;;;;2.53;1.10;;;4.00;99.90;;;;;;5020191;28;20145;-57
2021/12/11 07:01:14;;;;;;;3.88;1.25;;;4.10;99.90;;;;;;5020037;28;20210;-57
2021/12/11 07:03:41;;;;;;;2.40;0.90;;;4.10;99.90;;;;;;5019093;28;20041;-56
2021/12/11 07:06:09;;;;;;;2.83;1.10;;;4.10;99.90;;;;;;5018106;28;20047;-57
2021/12/11 07:08:38;;;;;;;2.25;1.08;;;4.10;99.90;;;;;;5021368;28;20064;-56
2021/12/11 07:11:06;;;;;;;2.65;1.40;;;4.10;99.90;;;;;;5019422;28;20136;-56
2021/12/11 07:13:33;;;;;;;3.13;1.20;;;4.20;99.90;;;;;;5018487;28;20666;-57
2021/12/11 07:16:00;;;;;;;3.25;1.40;;;4.20;99.90;;;;;;5019245;28;20077;-57
2021/12/11 07:18:27;;;;;;;4.55;1.27;;;4.20;99.90;;;;;;5020790;28;20481;-55
2021/12/11 07:20:55;;;;;;;3.38;1.15;;;4.20;99.90;;;;;;5018714;28;20107;-56
2021/12/11 07:23:22;;;;;;;6.28;1.70;;;4.30;99.90;;;;;;5018363;28;20056;-55
2021/12/11 07:26:00;;;;;;;2.65;1.02;;;4.30;99.90;;;;;;5019223;28;20124;-57
2021/12/11 07:28:28;;;;;;;2.55;1.15;;;4.30;99.90;;;;;;5018829;28;20518;-57
2021/12/11 07:30:56;;;;;;;1.95;1.13;;;4.40;99.90;;;;;;5019323;28;20140;-56
2021/12/11 07:33:23;;;;;;;3.00;1.40;;;4.40;99.90;;;;;;5019304;28;20045;-57
2021/12/11 07:35:50;;;;;;;3.17;1.13;;;4.40;99.90;;;;;;5017429;28;20132;-57
2021/12/11 07:38:17;;;;;;;2.92;1.10;;;4.40;99.90;;;;;;5019892;28;20058;-56
2021/12/11 07:40:47;;;;;;;2.42;0.98;;;4.40;99.90;;;;;;5016686;28;20140;-56
2021/12/11 07:43:14;;;;;;;2.72;1.13;;;4.40;99.90;;;;;;5018263;28;20571;-55
2021/12/11 07:45:41;;;;;;;3.15;1.15;;;4.40;99.90;;;;;;5019427;28;20099;-58
2021/12/11 07:48:07;;;;;;;1.55;0.80;;;4.40;99.90;;;;;;5018172;28;20124;-57
2021/12/11 07:50:34;;;;;;;3.13;1.00;;;4.40;99.90;;;;;;5020508;28;20134;-58
2021/12/11 07:53:01;;;;;;;1.58;1.00;;;4.40;99.90;;;;;;5020584;28;20077;-57
2021/12/11 07:55:28;;;;;;;2.38;0.93;;;4.50;99.90;;;;;;5021255;28;20067;-58
2021/12/11 07:57:54;;;;;;;2.20;1.20;;;4.50;99.90;;;;;;5019062;28;20072;-57
2021/12/11 08:00:23;;;;;;;3.00;1.30;;;4.50;99.90;;;;;;5021184;28;20140;-56
2021/12/11 08:02:50;;;;;;;3.90;1.50;;;4.50;99.90;;;;;;5020443;28;20081;-57
2021/12/11 08:05:17;;;;;;;2.42;1.48;;;4.50;99.90;;;;;;5020720;28;20057;-57
2021/12/11 08:07:44;;;;;;;3.08;1.45;;;4.50;99.90;;;;;;5020885;28;20136;-58
2021/12/11 08:10:15;;;;;;;4.22;1.63;;;4.50;99.90;;;;;;5018291;28;20063;-59
2021/12/11 08:12:42;;;;;;;3.22;1.27;;;4.50;99.90;;;;;;5018591;28;20110;-59
2021/12/11 08:15:09;;;;;;;2.95;1.25;;;4.50;99.90;;;;;;5020679;28;20728;-59
2021/12/11 08:17:36;;;;;;;1.90;0.90;;;4.60;99.90;;;;;;5021092;28;20049;-58
2021/12/11 08:20:05;;;;;;;3.15;1.13;;;4.70;99.90;;;;;;5030714;28;20092;-58
2021/12/11 08:22:32;;;;;;;4.47;1.23;;;4.70;99.90;;;;;;4999770;28;20058;-58
2021/12/11 08:24:59;;;;;;;2.63;1.38;;;4.80;99.90;;;;;;5020726;28;20809;-58
2021/12/11 08:27:27;;;;;;;2.17;1.00;;;4.80;99.90;;;;;;5018634;28;20136;-58
2021/12/11 08:29:54;;;;;;;3.40;1.10;;;4.80;99.90;;;;;;5021115;28;20770;-57
2021/12/11 08:32:21;;;;;;;3.17;1.05;;;4.80;99.90;;;;;;5018647;28;20057;-56
2021/12/11 08:34:52;;;;;;;2.90;1.00;;;4.70;99.90;;;;;;5020144;28;20071;-57
2021/12/11 08:37:20;;;;;;;2.45;1.02;;;4.80;99.90;;;;;;5018891;28;20168;-56
2021/12/11 08:39:47;;;;;;;3.72;1.33;;;4.80;99.90;;;;;;5019972;28;20400;-56
2021/12/11 08:42:18;;;;;;;3.90;1.30;;;4.80;99.90;;;;;;5018339;28;20153;-56
2021/12/11 08:44:57;;;;;;;3.72;1.30;;;4.90;99.90;;;;;;5020840;28;20088;-57
2021/12/11 08:47:24;;;;;;;3.17;1.23;;;4.90;99.90;;;;;;5018404;28;20129;-56
2021/12/11 08:49:51;;;;;;;1.77;0.93;;;4.90;99.90;;;;;;5020460;28;20045;-57
2021/12/11 08:52:32;;;;;;;3.80;1.50;;;4.90;99.90;;;;;;5020686;28;20149;-56
2021/12/11 08:54:59;;;;;;;4.40;1.42;;;5.00;99.90;;;;;;5019432;28;20049;-57
2021/12/11 08:57:30;;;;;;;3.50;1.45;;;5.00;99.90;;;;;;5018995;28;20144;-53
2021/12/11 09:00:01;;;;;;;3.67;1.10;;;5.00;99.90;;;;;;5019112;28;20104;-55
2021/12/11 09:02:34;;;;;;;3.30;1.40;;;5.00;99.90;;;;;;4999080;28;20088;-55
2021/12/11 09:05:10;;;;;;;3.03;1.30;;;5.00;99.90;;;;;;5019584;28;20069;-54
2021/12/11 09:07:44;;;;;;;2.38;1.20;;;5.00;99.90;;;;;;5019900;28;20852;-57
2021/12/11 09:10:27;;;;;;;4.25;1.55;;;5.00;99.90;;;;;;5018242;28;20057;-56
2021/12/11 09:13:04;;;;;;;3.20;1.73;;;5.10;99.90;;;;;;5001397;28;20124;-55
2021/12/11 09:15:33;;;;;;;3.72;2.13;;;5.10;99.90;;;;;;5018643;28;20394;-57
2021/12/11 09:18:05;;;;;;;3.75;1.60;;;5.20;99.90;;;;;;5018115;28;20065;-56
2021/12/11 09:20:37;;;;;;;2.22;1.23;;;5.30;99.90;;;;;;5018893;28;20062;-55
2021/12/11 09:23:12;;;;;;;3.50;1.70;;;5.30;99.90;;;;;;5016742;28;20053;-53
2021/12/11 09:26:04;;;;;;;2.78;1.40;;;5.30;99.90;;;;;;5018607;28;20498;-56
2021/12/11 09:28:42;;;;;;;4.07;1.55;;;5.40;99.90;;;;;;5015466;28;20103;-56
2021/12/11 09:31:22;;;;;;;3.85;1.50;;;5.50;99.90;;;;;;5018051;28;20133;-53
2021/12/11 09:33:53;;;;;;;4.68;1.50;;;5.60;99.90;;;;;;5018993;28;20164;-56
2021/12/11 09:36:22;;;;;;;3.47;1.65;;;5.60;99.90;;;;;;5017487;28;20132;-55
2021/12/11 09:38:55;;;;;;;4.28;1.65;;;5.60;99.90;;;;;;5019859;28;20714;-58
2021/12/11 09:41:24;;;;;;;2.58;1.55;;;5.70;99.90;;;;;;5014902;28;20045;-58
2021/12/11 09:43:57;;;;;;;3.30;1.88;;;5.70;99.90;;;;;;5019375;28;20147;-58
2021/12/11 09:46:47;;;;;;;3.97;1.50;;;5.70;99.90;;;;;;5019338;28;20089;-59
2021/12/11 09:49:18;;;;;;;3.88;1.60;;;5.80;99.90;;;;;;5004972;28;20046;-58
2021/12/11 09:51:47;;;;;;;3.78;1.48;;;5.90;99.90;;;;;;5015246;28;20136;-58
2021/12/11 09:54:17;;;;;;;4.40;2.13;;;5.90;99.90;;;;;;5015447;28;20347;-56
2021/12/11 09:56:50;;;;;;;4.90;1.40;;;6.00;99.90;;;;;;5015256;28;20045;-57
2021/12/11 09:59:19;;;;;;;3.65;2.30;;;6.10;99.90;;;;;;5017850;28;20548;-56
2021/12/11 10:01:49;;;;;;;4.05;1.58;;;6.20;99.90;;;;;;5018017;28;20124;-58
2021/12/11 10:04:19;;;;;;;6.72;2.22;;;6.30;99.90;;;;;;5017868;28;20529;-58
2021/12/11 10:09:27;;;;;;;3.70;1.40;;;6.50;99.90;;;;;;5018087;28;20701;-58
2021/12/11 10:12:09;;;;;;;4.55;1.55;;;6.50;99.90;;;;;;5014986;28;20483;-58
2021/12/11 10:14:41;;;;;;;2.42;1.13;;;6.70;99.90;;;;;;5018704;28;20558;-55
2021/12/11 10:17:14;;;;;;;5.63;1.50;;;6.70;99.90;;;;;;5017904;28;20049;-58
2021/12/11 10:19:42;;;;;;;3.60;1.33;;;6.80;99.90;;;;;;5018356;28;20092;-58
2021/12/11 10:22:24;;;;;;;3.15;1.30;;;6.90;99.90;;;;;;5017361;28;20260;-58
2021/12/11 10:24:51;;;;;;;5.68;1.73;;;6.90;99.90;;;;;;5018238;28;20151;-58
2021/12/11 10:27:19;;;;;;;3.80;1.25;;;7.00;99.90;;;;;;5016821;28;20141;-58
2021/12/11 10:29:46;;;;;;;4.80;1.88;;;7.10;99.90;;;;;;5017786;28;20132;-58
2021/12/11 10:32:18;;;;;;;4.25;1.70;;;7.20;99.90;;;;;;5018152;28;20603;-58
2021/12/11 10:34:48;;;;;;;4.03;1.67;;;7.40;99.90;;;;;;5017579;28;20041;-57
2021/12/11 10:37:21;;;;;;;3.38;2.10;;;7.40;99.90;;;;;;5018106;28;20479;-58
2021/12/11 10:39:52;;;;;;;4.22;2.08;;;7.40;99.90;;;;;;5018235;28;20393;-56
2021/12/11 10:42:18;;;;;;;3.78;1.52;;;7.50;99.90;;;;;;5016657;28;20077;-57
2021/12/11 10:44:48;;;;;;;4.05;1.85;;;7.50;99.90;;;;;;5018022;28;20081;-57
2021/12/11 10:47:25;;;;;;;4.57;1.75;;;7.50;99.90;;;;;;5017981;28;20156;-57
2021/12/11 10:50:18;;;;;;;6.50;1.77;;;7.50;99.90;;;;;;5003354;28;20122;-58
2021/12/11 10:52:45;;;;;;;5.45;2.17;;;7.60;99.90;;;;;;5012396;28;20061;-58
2021/12/11 10:55:13;;;;;;;4.10;1.65;;;7.60;99.90;;;;;;5017987;28;20045;-57
2021/12/11 10:57:40;;;;;;;6.68;2.03;;;7.60;99.90;;;;;;5016352;28;20148;-58
2021/12/11 11:00:14;;;;;;;6.03;2.17;;;7.70;99.90;;;;;;5017072;28;20739;-58
2021/12/11 11:02:41;;;;;;;7.78;2.63;;;7.80;99.90;;;;;;5018121;28;20448;-59
2021/12/11 11:05:11;;;;;;;5.95;2.50;;;7.80;99.90;;;;;;5017163;28;20045;-59
2021/12/11 11:07:39;;;;;;;6.50;2.35;;;7.90;99.90;;;;;;5016530;28;20157;-59
2021/12/11 11:10:09;;;;;;;5.57;2.55;;;8.00;99.90;;;;;;5016969;28;20129;-55
2021/12/11 11:12:35;;;;;;;5.05;2.40;;;8.10;99.90;;;;;;5014190;28;20461;-57
2021/12/11 11:15:03;;;;;;;5.25;2.00;;;8.20;99.90;;;;;;5017153;28;20056;-57
2021/12/11 11:17:31;;;;;;;4.55;1.98;;;8.30;99.90;;;;;;5017572;28;20139;-57
2021/12/11 11:19:58;;;;;;;7.35;2.45;;;8.30;99.90;;;;;;5016131;28;20471;-58
2021/12/11 11:22:28;;;;;;;3.70;1.73;;;8.50;99.90;;;;;;5016649;28;20132;-57
2021/12/11 11:24:59;;;;;;;6.25;1.88;;;8.60;99.90;;;;;;5019646;28;20136;-57
2021/12/11 11:27:26;;;;;;;2.95;1.58;;;8.70;99.90;;;;;;5020184;28;20057;-57
2021/12/11 11:29:53;;;;;;;3.70;1.90;;;8.90;99.90;;;;;;5020475;28;20087;-56
2021/12/11 11:32:31;;;;;;;4.10;1.30;;;9.00;99.90;;;;;;5020751;28;20465;-56
2021/12/11 11:35:03;;;;;;;3.25;1.20;;;9.00;99.90;;;;;;5020222;28;20331;-57
2021/12/11 11:37:43;;;;;;;3.22;1.48;;;9.10;99.90;;;;;;5020387;28;20077;-55
2021/12/11 11:40:14;;;;;;;3.97;1.60;;;9.10;99.90;;;;;;5019829;28;20089;-54
2021/12/11 11:42:41;;;;;;;4.43;1.80;;;9.20;99.90;;;;;;5019729;28;20145;-57
2021/12/11 11:45:13;;;;;;;5.60;1.88;;;9.30;99.90;;;;;;5021053;28;20635;-56
2021/12/11 11:47:40;;;;;;;4.20;1.65;;;9.30;99.90;;;;;;5021122;28;20492;-57
2021/12/11 11:50:09;;;;;;;5.43;2.03;;;9.30;99.90;;;;;;5021409;28;20070;-57
2021/12/11 11:52:36;;;;;;;2.75;1.40;;;9.40;99.90;;;;;;5020501;28;20073;-57
2021/12/11 11:55:07;;;;;;;4.13;1.40;;;9.30;99.90;;;;;;5019575;28;20128;-56
2021/12/11 11:57:37;;;;;;;2.50;1.10;;;9.30;99.90;;;;;;5018254;28;20069;-56
2021/12/11 12:00:32;;;;;;;4.07;1.70;;;9.20;99.90;;;;;;5020195;28;20133;-57
2021/12/11 12:02:59;;;;;;;2.95;1.25;;;9.30;99.90;;;;;;5020599;28;20065;-56
2021/12/11 12:05:26;;;;;;;5.60;1.42;;;9.20;99.90;;;;;;5021258;28;20115;-56
2021/12/11 12:07:53;;;;;;;3.13;1.35;;;9.20;99.90;;;;;;5020658;28;20209;-56
2021/12/11 12:10:25;;;;;;;5.80;2.08;;;9.20;99.90;;;;;;5020283;28;20698;-58
2021/12/11 12:12:51;;;;;;;5.32;1.83;;;9.10;99.90;;;;;;5019141;28;20079;-58
2021/12/11 12:15:24;;;;;;;2.60;1.48;;;9.20;99.90;;;;;;5020249;28;20049;-58
2021/12/11 12:17:50;;;;;;;3.80;1.30;;;9.20;99.90;;;;;;5020308;28;20164;-57
2021/12/11 12:20:17;;;;;;;3.03;1.33;;;9.30;99.90;;;;;;5019936;28;20141;-58
2021/12/11 12:22:45;;;;;;;6.63;1.88;;;9.30;99.90;;;;;;5020064;28;20132;-56
2021/12/11 12:25:11;;;;;;;5.03;2.03;;;9.30;99.90;;;;;;5018976;28;20052;-56
2021/12/11 12:27:39;;;;;;;4.85;2.00;;;9.30;99.90;;;;;;5018934;28;20132;-55
2021/12/11 12:30:13;;;;;;;6.95;2.35;;;9.30;99.90;;;;;;5015947;28;20137;-55
2021/12/11 12:32:41;;;;;;;4.70;1.90;;;9.30;99.90;;;;;;5016715;28;20081;-55
2021/12/11 12:35:14;;;;;;;3.70;1.73;;;9.30;99.90;;;;;;5015740;28;20128;-51
2021/12/11 12:37:41;;;;;;;;;;;9.30;99.90;;;;;;5015526;28;20129;-55
2021/12/11 12:40:14;;;;;;;4.43;1.45;;;9.20;99.90;;;;;;5012901;28;20360;-56
2021/12/11 12:42:52;;;;;;;5.00;1.60;;;9.30;99.90;;;;;;5019076;28;20129;-54
2021/12/11 12:45:24;;;;;;;6.30;1.50;;;9.20;99.90;;;;;;5021217;28;20152;-53
2021/12/11 12:47:56;;;;;;;4.05;1.48;;;9.20;99.90;;;;;;5018423;28;20045;-54
2021/12/11 12:50:28;;;;;;;5.80;1.88;;;9.10;99.90;;;;;;5018455;28;20064;-51
2021/12/11 12:52:56;;;;;;;6.68;2.28;;;9.00;99.90;;;;;;5017108;28;20160;-56
2021/12/11 12:55:28;;;;;;;4.80;1.65;;;9.00;99.90;;;;;;5014896;28;20045;-54
2021/12/11 12:57:57;;;;;;;3.97;1.50;;;9.00;99.90;;;;;;5018431;28;20145;-54
2021/12/11 13:00:43;;;;;;;3.42;1.52;;;9.00;99.90;;;;;;5018188;28;20128;-57
2021/12/11 13:03:18;;;;;;;4.55;1.80;;;9.00;99.90;;;;;;5018558;28;20053;-56
2021/12/11 13:06:01;;;;;;;5.88;1.50;;;9.00;99.90;;;;;;5020131;28;20041;-57
2021/12/11 13:08:30;;;;;;;4.10;1.40;;;9.00;99.90;;;;;;5019981;28;20129;-58
2021/12/11 13:11:15;;;;;;;2.55;1.33;;;9.10;99.90;;;;;;5018539;28;20132;-58
2021/12/11 13:13:47;;;;;;;4.07;1.60;;;9.10;99.90;;;;;;5018097;28;20057;-55
2021/12/11 13:16:41;;;;;;;5.68;2.08;;;9.10;99.90;;;;;;5018478;28;20041;-56
2021/12/11 13:19:12;;;;;;;;;;;9.10;99.90;;;;;;5017052;28;20089;-56
2021/12/11 13:21:42;;;;;;;4.95;2.03;;;9.00;99.90;;;;;;5019483;28;20059;-58
2021/12/11 13:24:10;;;;;;;7.53;2.88;;;8.90;99.90;;;;;;5017268;28;20515;-55
2021/12/11 13:26:39;;;;;;;5.03;1.70;;;9.00;99.90;;;;;;5017707;28;20673;-54
2021/12/11 13:29:08;;;;;;;5.60;2.20;;;9.00;99.90;;;;;;5020212;28;20049;-57
2021/12/11 13:31:39;;;;;;;4.00;1.90;;;9.10;99.90;;;;;;5017893;28;20085;-54